Time;durP1;ratioP1;P1;durP2;ratioP2;P2;SDS_P1;SDS_P2;PMS_P1;PMS_P2;Temp;Humidity;BMP_temperature;BMP_pressure;BME280_temperature;BME280_humidity;BME280_pressure;Samples;Min_cycle;Max_cycle;Signal;HPM_P1;HPM_P2
2022/01/01 00:00:37;;;;;;;11.50;7.50;;;;;;;10.89;73.45;98903.27;211381;1316;139525;-60
2022/01/01 00:05:42;;;;;;;13.80;8.70;;;;;;;10.87;73.46;98902.00;211520;1314;139123;-59
2022/01/01 00:10:45;;;;;;;13.40;8.10;;;;;;;10.85;73.57;98898.27;211646;1316;139235;-63
2022/01/01 00:15:50;;;;;;;;;;;;;;;10.78;73.71;98896.05;211687;1319;140882;-59
2022/01/01 00:20:53;;;;;;;15.90;8.80;;;;;;;10.73;73.74;98900.30;211592;1315;125927;-60
2022/01/01 00:25:56;;;;;;;14.10;8.00;;;;;;;10.71;74.29;98898.80;211443;1315;139570;-62
2022/01/01 00:30:59;;;;;;;16.60;9.90;;;;;;;10.70;74.36;98899.42;211374;1319;139143;-58
2022/01/01 00:36:03;;;;;;;14.00;8.20;;;;;;;10.67;74.10;98899.80;211408;1318;139799;-62
2022/01/01 00:41:06;;;;;;;16.00;10.00;;;;;;;10.66;73.97;98904.98;211462;1315;140008;-59
2022/01/01 00:46:10;;;;;;;17.10;11.20;;;;;;;10.62;74.65;98906.61;211618;1315;139042;-63
2022/01/01 00:51:13;;;;;;;19.50;10.90;;;;;;;10.57;74.69;98909.98;211313;1319;139705;-60
2022/01/01 00:56:16;;;;;;;17.70;10.40;;;;;;;10.58;74.66;98916.11;211488;1316;139455;-63
2022/01/01 01:01:19;;;;;;;19.70;12.60;;;;;;;10.59;74.65;98919.64;211612;1315;142083;-64
2022/01/01 01:06:23;;;;;;;20.10;12.30;;;;;;;10.58;74.68;98923.23;211278;1318;139163;-63
2022/01/01 01:11:27;;;;;;;20.20;11.40;;;;;;;10.55;74.94;98921.83;211425;1316;139315;-66
2022/01/01 01:16:30;;;;;;;18.70;11.70;;;;;;;10.55;74.95;98921.11;211468;1316;141058;-58
2022/01/01 01:21:33;;;;;;;20.10;12.90;;;;;;;10.55;75.09;98923.27;211457;1316;140481;-63
2022/01/01 01:26:36;;;;;;;18.10;12.10;;;;;;;10.58;75.07;98922.52;211620;1316;139559;-58
2022/01/01 01:31:40;;;;;;;19.10;12.20;;;;;;;10.59;75.41;98919.60;211608;1316;139951;-62
2022/01/01 01:36:43;;;;;;;18.50;11.30;;;;;;;10.59;75.36;98921.20;211372;1316;139461;-65
2022/01/01 01:41:46;;;;;;;24.70;14.70;;;;;;;10.62;75.33;98932.72;211486;1314;139657;-58
2022/01/01 01:46:49;;;;;;;25.50;16.50;;;;;;;10.63;75.30;98941.55;211370;1321;139320;-66
2022/01/01 01:51:53;;;;;;;21.30;13.80;;;;;;;10.65;75.57;98952.94;211587;1316;139579;-64
2022/01/01 01:56:58;;;;;;;20.50;11.70;;;;;;;10.69;75.43;98961.41;211245;1319;140401;-65
2022/01/01 02:02:01;;;;;;;21.40;13.00;;;;;;;10.69;75.23;98964.23;211558;1316;139497;-63
2022/01/01 02:07:07;;;;;;;21.70;13.60;;;;;;;10.70;75.74;98958.17;211682;1314;139079;-64
2022/01/01 02:12:11;;;;;;;19.70;11.10;;;;;;;10.72;75.60;98961.20;211392;1316;141472;-63
2022/01/01 02:17:14;;;;;;;18.00;10.80;;;;;;;10.76;75.55;98965.73;211409;1316;139588;-60
2022/01/01 02:22:18;;;;;;;17.40;11.10;;;;;;;10.81;75.80;98977.13;211430;1316;140390;-64
2022/01/01 02:27:21;;;;;;;18.40;11.10;;;;;;;10.87;75.80;98979.61;211471;1317;139687;-62
2022/01/01 02:32:23;;;;;;;17.80;10.00;;;;;;;10.91;76.05;98987.64;211421;1316;139321;-60
2022/01/01 02:37:26;;;;;;;13.60;8.80;;;;;;;10.93;75.70;98993.73;211484;1313;140119;-59
2022/01/01 02:42:29;;;;;;;15.80;11.00;;;;;;;10.97;76.04;98992.95;211382;1316;140304;-60
2022/01/01 02:47:33;;;;;;;15.10;10.90;;;;;;;10.95;75.81;99000.56;211466;1314;139466;-62
2022/01/01 02:52:36;;;;;;;16.10;9.90;;;;;;;10.93;75.80;99000.82;211385;1316;139871;-64
2022/01/01 02:57:39;;;;;;;16.10;10.80;;;;;;;10.93;76.04;99006.15;211635;1316;139590;-58
2022/01/01 03:02:45;;;;;;;18.90;12.50;;;;;;;10.89;75.92;99012.84;211361;1316;139321;-59
2022/01/01 03:07:48;;;;;;;;;;;;;;;10.86;76.37;99014.43;211465;1316;139165;-58
2022/01/01 03:12:51;;;;;;;17.80;11.00;;;;;;;10.82;76.05;99016.98;211559;1316;126332;-59
2022/01/01 03:17:56;;;;;;;18.60;10.60;;;;;;;10.79;76.43;99018.64;211230;1319;139158;-63
2022/01/01 03:22:59;;;;;;;20.50;11.10;;;;;;;10.84;76.15;99021.11;211474;1313;139998;-62
2022/01/01 03:28:02;;;;;;;16.70;11.10;;;;;;;10.88;76.40;99026.36;211728;1316;140403;-64
2022/01/01 03:33:05;;;;;;;19.30;11.90;;;;;;;10.89;76.38;99024.14;211613;1316;138767;-62
2022/01/01 03:38:08;;;;;;;15.10;10.00;;;;;;;10.87;76.36;99026.98;211350;1316;140767;-60
2022/01/01 03:43:11;;;;;;;17.30;10.60;;;;;;;10.83;76.07;99035.58;211472;1315;139710;-61
2022/01/01 03:48:14;;;;;;;17.60;12.00;;;;;;;10.81;76.42;99044.91;211394;1316;139433;-63
2022/01/01 03:53:17;;;;;;;18.70;12.20;;;;;;;10.80;76.30;99053.52;211458;1316;138976;-59
2022/01/01 03:58:20;;;;;;;15.50;10.20;;;;;;;10.81;76.78;99062.50;211338;1319;140236;-59
2022/01/01 04:03:23;;;;;;;16.90;9.70;;;;;;;10.81;76.40;99072.27;211458;1316;139984;-60
2022/01/01 04:08:28;;;;;;;15.40;10.10;;;;;;;10.81;76.40;99073.67;211476;1316;139276;-59
2022/01/01 04:13:31;;;;;;;12.90;9.50;;;;;;;10.82;76.60;99073.75;211592;1313;139042;-59
2022/01/01 04:18:40;;;;;;;13.30;8.60;;;;;;;10.81;76.87;99075.63;211639;1316;138742;-60
2022/01/01 04:23:45;;;;;;;11.60;7.80;;;;;;;10.81;76.77;99078.10;211459;1316;142031;-60
2022/01/01 04:28:48;;;;;;;9.50;7.00;;;;;;;10.83;76.79;99077.29;211392;1316;140145;-62
2022/01/01 04:33:51;;;;;;;9.40;7.00;;;;;;;10.87;76.86;99073.27;211497;1316;139166;-63
2022/01/01 04:38:54;;;;;;;8.40;6.10;;;;;;;10.92;76.73;99080.23;211700;1316;138732;-58
2022/01/01 04:43:57;;;;;;;7.70;5.60;;;;;;;10.95;76.88;99088.77;211430;1316;138890;-60
2022/01/01 04:49:00;;;;;;;7.70;5.10;;;;;;;10.99;76.87;99097.36;211419;1316;139686;-60
2022/01/01 04:54:10;;;;;;;6.80;4.80;;;;;;;11.03;77.08;99100.70;211584;1316;140397;-59
2022/01/01 04:59:13;;;;;;;8.20;5.60;;;;;;;11.01;76.77;99104.17;211679;1316;139505;-58
2022/01/01 05:04:16;;;;;;;9.80;5.40;;;;;;;10.96;76.93;99106.79;211480;1316;139379;-59
2022/01/01 05:09:19;;;;;;;6.40;5.30;;;;;;;10.95;76.94;99108.50;211626;1314;139438;-63
2022/01/01 05:14:22;;;;;;;6.50;5.00;;;;;;;10.96;76.87;99107.86;211326;1316;139737;-64
2022/01/01 05:19:26;;;;;;;7.10;5.20;;;;;;;10.95;77.16;99112.56;211518;1316;139321;-60
2022/01/01 05:24:29;;;;;;;6.80;5.00;;;;;;;10.93;77.16;99111.80;211607;1315;140006;-58
2022/01/01 05:29:34;;;;;;;5.50;4.50;;;;;;;10.94;77.13;99111.58;211448;1316;139460;-66
2022/01/01 05:34:37;;;;;;;6.90;5.60;;;;;;;10.98;77.17;99116.61;211433;1316;139740;-58
2022/01/01 05:39:40;;;;;;;6.30;5.10;;;;;;;10.99;77.22;99119.96;211393;1316;139162;-63
2022/01/01 05:44:43;;;;;;;5.70;5.10;;;;;;;10.98;77.40;99122.16;211541;1313;140835;-58
2022/01/01 05:49:46;;;;;;;7.20;5.10;;;;;;;10.95;77.28;99132.77;211484;1315;138773;-62
2022/01/01 05:54:49;;;;;;;7.70;5.50;;;;;;;10.96;77.34;99141.77;211481;1316;140363;-58
2022/01/01 05:59:52;;;;;;;8.40;6.20;;;;;;;10.97;77.34;99144.02;211376;1318;139043;-58
2022/01/01 06:04:54;;;;;;;7.70;5.80;;;;;;;10.97;77.28;99147.07;211330;1316;139432;-59
2022/01/01 06:09:57;;;;;;;7.10;4.90;;;;;;;10.98;77.63;99145.23;211570;1316;138989;-62
2022/01/01 06:15:00;;;;;;;7.70;4.80;;;;;;;10.98;77.54;99142.34;211440;1316;140168;-60
2022/01/01 06:20:04;;;;;;;6.40;5.40;;;;;;;11.02;77.71;99144.27;211617;1316;139248;-59
2022/01/01 06:25:08;;;;;;;6.20;4.70;;;;;;;11.06;77.67;99152.52;211484;1316;140697;-58
2022/01/01 06:30:12;;;;;;;4.90;4.20;;;;;;;11.05;77.46;99164.84;211370;1316;140186;-62
2022/01/01 06:35:14;;;;;;;5.40;4.30;;;;;;;11.04;77.83;99163.09;211499;1316;139522;-62
2022/01/01 06:40:17;;;;;;;7.00;6.00;;;;;;;11.02;77.50;99178.48;211349;1316;139125;-63
2022/01/01 06:45:20;;;;;;;7.10;5.50;;;;;;;11.01;77.95;99183.71;211319;1313;138786;-59
2022/01/01 06:50:24;;;;;;;6.40;5.00;;;;;;;11.01;77.56;99191.18;211335;1316;140828;-66
2022/01/01 06:55:26;;;;;;;7.20;5.40;;;;;;;11.00;77.85;99195.52;211441;1316;143102;-60
2022/01/01 07:00:30;;;;;;;7.60;5.30;;;;;;;10.98;78.00;99205.41;211587;1316;138967;-59
2022/01/01 07:05:34;;;;;;;5.80;4.60;;;;;;;10.94;77.75;99205.43;211504;1313;139354;-62
2022/01/01 07:10:38;;;;;;;5.40;4.10;;;;;;;10.92;77.71;99213.94;211395;1316;139737;-60
2022/01/01 07:15:42;;;;;;;4.70;4.20;;;;;;;10.95;77.73;99219.44;211562;1317;138996;-59
2022/01/01 07:20:45;;;;;;;6.90;4.60;;;;;;;10.98;77.85;99225.83;211419;1316;139139;-59
2022/01/01 07:25:48;;;;;;;4.40;3.80;;;;;;;10.97;77.71;99228.88;211359;1316;138592;-62
2022/01/01 07:30:51;;;;;;;6.10;4.50;;;;;;;11.00;77.82;99242.90;211690;1314;139538;-63
2022/01/01 07:35:55;;;;;;;5.50;4.10;;;;;;;11.02;77.36;99245.44;211619;1317;141009;-66
2022/01/01 07:40:58;;;;;;;5.90;4.50;;;;;;;11.04;77.83;99251.15;211450;1316;139685;-61
2022/01/01 07:46:01;;;;;;;6.00;4.20;;;;;;;11.04;77.68;99254.75;211689;1316;139773;-59
2022/01/01 07:51:05;;;;;;;5.50;4.30;;;;;;;11.04;77.56;99256.31;211594;1316;139733;-59
2022/01/01 07:56:08;;;;;;;6.30;4.70;;;;;;;11.06;77.74;99261.69;211553;1316;140296;-58
2022/01/01 08:01:11;;;;;;;6.60;4.50;;;;;;;11.05;77.63;99269.79;211506;1313;139905;-63
2022/01/01 08:06:14;;;;;;;6.00;4.40;;;;;;;11.05;77.61;99274.88;211634;1314;139922;-61
2022/01/01 08:11:17;;;;;;;6.20;4.50;;;;;;;11.09;77.84;99282.98;211587;1316;139887;-59
2022/01/01 08:16:20;;;;;;;10.20;4.60;;;;;;;11.10;77.74;99287.38;211451;1316;139097;-61
2022/01/01 08:21:24;;;;;;;7.70;4.80;;;;;;;11.12;77.78;99286.91;211577;1317;139231;-62
2022/01/01 08:26:27;;;;;;;6.60;5.20;;;;;;;11.13;77.61;99298.38;211481;1314;139922;-58
2022/01/01 08:31:29;;;;;;;7.90;5.80;;;;;;;11.13;77.55;99307.27;211561;1316;141168;-55
2022/01/01 08:36:33;;;;;;;10.20;7.20;;;;;;;11.18;78.00;99302.89;211443;1315;140182;-56
2022/01/01 08:41:36;;;;;;;9.60;7.50;;;;;;;11.19;77.75;99303.38;211442;1319;138948;-56
2022/01/01 08:46:39;;;;;;;9.50;7.30;;;;;;;11.15;77.66;99313.74;211316;1316;139307;-59
2022/01/01 08:51:44;;;;;;;10.10;7.10;;;;;;;11.09;77.69;99314.95;211577;1316;139409;-59
2022/01/01 08:56:47;;;;;;;11.50;7.70;;;;;;;11.10;78.00;99319.33;211477;1316;139877;-59
2022/01/01 09:01:50;;;;;;;11.30;8.20;;;;;;;11.12;77.76;99324.55;211437;1315;139682;-60
2022/01/01 09:06:53;;;;;;;10.40;7.50;;;;;;;11.10;78.09;99322.34;211400;1316;139551;-61
2022/01/01 09:11:57;;;;;;;10.80;7.10;;;;;;;11.12;77.94;99325.94;211437;1316;141588;-59
2022/01/01 09:17:00;;;;;;;11.40;7.60;;;;;;;11.12;77.87;99327.55;211457;1315;140351;-59
2022/01/01 09:22:03;;;;;;;10.50;7.30;;;;;;;11.10;77.75;99334.08;211623;1316;139522;-60
2022/01/01 09:27:06;;;;;;;9.00;6.50;;;;;;;11.08;77.87;99341.15;211382;1315;139883;-58
2022/01/01 09:32:10;;;;;;;8.80;6.00;;;;;;;11.09;77.85;99340.55;211300;1316;140983;-59
2022/01/01 09:37:18;;;;;;;9.80;6.60;;;;;;;11.12;77.98;99349.58;211328;1316;140265;-57
2022/01/01 09:42:22;;;;;;;9.70;6.80;;;;;;;11.15;77.92;99351.59;211386;1316;140460;-58
2022/01/01 09:47:26;;;;;;;10.30;6.40;;;;;;;11.17;78.20;99349.50;211292;1316;140201;-60
2022/01/01 09:52:29;;;;;;;8.20;5.50;;;;;;;11.20;78.07;99353.21;211337;1316;139854;-59
2022/01/01 09:57:32;;;;;;;7.80;5.90;;;;;;;11.21;77.75;99356.67;211656;1316;141180;-58
2022/01/01 10:02:35;;;;;;;9.10;6.50;;;;;;;11.23;78.08;99365.63;211469;1316;140960;-57
2022/01/01 10:07:38;;;;;;;9.90;6.60;;;;;;;11.22;78.12;99368.70;211338;1316;138821;-60
2022/01/01 10:12:43;;;;;;;8.40;5.90;;;;;;;11.23;77.79;99378.09;211516;1315;139658;-60
2022/01/01 10:17:46;;;;;;;8.50;5.60;;;;;;;11.25;77.78;99372.63;211441;1319;139126;-60
2022/01/01 10:22:52;;;;;;;9.60;7.20;;;;;;;11.27;77.90;99368.61;211373;1318;138962;-61
2022/01/01 10:27:56;;;;;;;6.80;6.00;;;;;;;11.29;78.13;99372.03;211568;1316;138574;-62
2022/01/01 10:33:04;;;;;;;7.60;5.40;;;;;;;11.32;78.29;99369.89;211436;1321;139243;-63
2022/01/01 10:38:14;;;;;;;6.60;5.60;;;;;;;11.39;77.98;99373.21;211337;1316;139703;-61
2022/01/01 10:43:17;;;;;;;9.20;5.60;;;;;;;11.43;77.89;99371.41;211461;1316;140322;-59
2022/01/01 10:53:36;;;;;;;5.90;4.70;;;;;;;11.48;78.19;99360.23;211439;1319;140178;-60
2022/01/01 10:58:39;;;;;;;5.90;4.80;;;;;;;11.53;78.33;99357.80;211506;1316;139522;-59
2022/01/01 11:03:43;;;;;;;6.70;4.70;;;;;;;11.59;78.02;99362.56;211635;1322;139379;-60
2022/01/01 11:08:47;;;;;;;6.10;5.10;;;;;;;11.66;77.85;99366.27;211458;1320;139027;-59
2022/01/01 11:13:51;;;;;;;5.60;4.50;;;;;;;11.67;77.76;99367.41;211592;1316;138631;-65
2022/01/01 11:18:54;;;;;;;5.70;3.90;;;;;;;11.65;77.72;99358.85;211470;1316;139983;-58
2022/01/01 11:23:57;;;;;;;7.40;4.20;;;;;;;11.63;77.82;99359.67;211492;1316;139298;-60
2022/01/01 11:29:01;;;;;;;8.00;4.30;;;;;;;11.62;77.63;99363.67;211530;1316;138791;-63
2022/01/01 11:34:07;;;;;;;8.30;4.60;;;;;;;11.54;77.76;99360.56;211564;1315;138939;-61
2022/01/01 11:39:14;;;;;;;5.90;3.80;;;;;;;11.53;77.69;99357.29;211291;1316;140589;-60
2022/01/01 11:44:30;;;;;;;6.80;3.90;;;;;;;11.54;77.98;99358.46;211479;1316;139436;-63
2022/01/01 11:49:34;;;;;;;5.90;3.90;;;;;;;11.58;77.88;99359.45;211424;1317;138996;-60
2022/01/01 11:54:59;;;;;;;6.20;3.80;;;;;;;11.57;78.02;99359.86;211313;1316;139189;-60
2022/01/01 12:00:13;;;;;;;4.50;3.10;;;;;;;11.59;77.92;99366.47;211334;1315;139795;-60
2022/01/01 12:05:22;;;;;;;;;;;;;;;11.59;77.68;99367.39;211365;1317;138787;-58
2022/01/01 12:10:31;;;;;;;7.40;5.20;;;;;;;11.60;77.94;99365.17;211557;1316;125549;-64
2022/01/01 12:15:49;;;;;;;7.30;4.80;;;;;;;11.60;78.04;99362.83;211388;1322;139744;-58
2022/01/01 12:21:01;;;;;;;7.70;5.00;;;;;;;11.66;78.04;99369.32;211339;1322;139415;-60
2022/01/01 12:26:09;;;;;;;8.00;5.20;;;;;;;11.69;78.10;99375.12;211556;1316;139245;-59
2022/01/01 12:31:21;;;;;;;10.60;5.80;;;;;;;11.74;77.79;99369.52;211440;1317;139374;-58
2022/01/01 12:36:33;;;;;;;7.50;4.90;;;;;;;11.78;77.65;99362.99;211346;1320;138903;-61
2022/01/01 12:41:41;;;;;;;11.20;4.90;;;;;;;11.83;77.94;99363.45;211271;1319;139486;-57
2022/01/01 12:46:45;;;;;;;9.60;5.50;;;;;;;11.91;77.63;99367.20;211354;1317;139346;-60
2022/01/01 12:51:51;;;;;;;8.40;6.50;;;;;;;12.00;77.56;99373.59;211375;1315;140824;-59
2022/01/01 12:56:55;;;;;;;8.20;6.10;;;;;;;12.03;77.50;99384.10;211388;1322;138877;-63
2022/01/01 13:02:02;;;;;;;10.20;6.40;;;;;;;11.99;77.03;99385.57;211453;1315;140788;-63
2022/01/01 13:07:07;;;;;;;9.60;6.50;;;;;;;11.95;77.01;99387.60;211413;1319;139134;-59
2022/01/01 13:12:13;;;;;;;8.50;6.20;;;;;;;11.91;77.50;99388.23;211440;1314;139345;-59
2022/01/01 13:17:16;;;;;;;8.20;5.50;;;;;;;11.87;77.22;99392.55;211467;1316;139039;-56
2022/01/01 13:22:28;;;;;;;9.40;5.90;;;;;;;11.89;77.22;99405.23;211467;1316;139488;-58
2022/01/01 13:27:35;;;;;;;9.80;6.10;;;;;;;11.93;77.03;99413.52;211710;1317;140779;-57
2022/01/01 13:32:38;;;;;;;16.60;13.10;;;;;;;11.97;77.19;99416.48;211481;1312;138670;-62
2022/01/01 13:37:43;;;;;;;8.20;5.70;;;;;;;11.96;77.09;99429.00;211549;1316;139787;-59
2022/01/01 13:42:46;;;;;;;7.90;5.40;;;;;;;11.93;76.98;99432.39;211383;1316;140419;-59
2022/01/01 13:47:49;;;;;;;8.60;5.60;;;;;;;11.95;76.88;99437.23;211191;1319;140886;-58
2022/01/01 13:52:58;;;;;;;8.80;5.70;;;;;;;11.98;76.82;99442.00;211441;1317;138981;-62
2022/01/01 13:58:04;;;;;;;9.50;5.70;;;;;;;12.04;76.61;99451.78;211592;1316;138666;-59
2022/01/01 14:03:07;;;;;;;9.50;5.10;;;;;;;12.02;76.59;99452.92;211527;1315;139032;-58
2022/01/01 14:08:18;;;;;;;7.40;4.90;;;;;;;12.02;76.09;99463.80;211380;1316;139385;-61
2022/01/01 14:13:38;;;;;;;8.50;6.10;;;;;;;12.03;76.28;99474.61;211397;1319;140140;-58
2022/01/01 14:18:44;;;;;;;11.70;7.60;;;;;;;11.99;76.34;99485.67;211414;1316;139198;-57
2022/01/01 14:23:52;;;;;;;12.00;7.80;;;;;;;11.94;76.15;99494.89;211308;1316;138786;-58
2022/01/01 14:28:58;;;;;;;13.40;8.90;;;;;;;11.87;76.50;99494.98;211410;1316;140388;-60
2022/01/01 14:34:02;;;;;;;11.90;8.40;;;;;;;11.80;76.27;99497.09;211554;1316;141737;-60
2022/01/01 14:39:05;;;;;;;13.20;9.80;;;;;;;11.76;76.33;99497.55;211394;1314;139421;-59
2022/01/01 14:44:08;;;;;;;12.70;10.00;;;;;;;11.72;76.44;99498.30;211127;1315;140019;-59
2022/01/01 14:49:38;;;;;;;14.70;9.40;;;;;;;11.68;76.62;99501.20;211129;1316;140386;-60
2022/01/01 14:55:09;;;;;;;15.20;9.50;;;;;;;11.63;76.39;99507.40;211397;1316;140790;-60
2022/01/01 15:00:16;;;;;;;11.70;7.40;;;;;;;11.63;76.40;99513.23;211678;1316;140045;-59
2022/01/01 15:05:20;;;;;;;9.50;6.70;;;;;;;11.59;76.47;99516.48;211373;1316;138860;-59
2022/01/01 15:10:23;;;;;;;10.00;6.00;;;;;;;11.56;76.70;99527.15;211451;1316;138922;-59
2022/01/01 15:15:28;;;;;;;9.60;5.10;;;;;;;11.55;76.52;99538.73;211517;1316;139735;-59
2022/01/01 15:20:31;;;;;;;8.90;5.30;;;;;;;11.56;76.28;99543.31;211394;1316;138923;-61
2022/01/01 15:25:35;;;;;;;10.90;7.20;;;;;;;11.56;76.17;99553.24;211474;1316;139619;-59
2022/01/01 15:30:50;;;;;;;12.30;7.90;;;;;;;11.52;76.21;99562.94;211326;1315;140324;-59
2022/01/01 15:36:01;;;;;;;11.90;8.10;;;;;;;11.46;76.43;99576.77;211448;1315;140250;-58
2022/01/01 15:41:15;;;;;;;12.70;8.40;;;;;;;11.44;76.55;99584.15;211355;1316;139637;-63
2022/01/01 15:46:18;;;;;;;15.80;9.10;;;;;;;11.46;76.45;99591.52;211305;1316;139455;-59
2022/01/01 15:51:21;;;;;;;14.00;9.60;;;;;;;11.43;76.48;99595.25;211456;1316;138368;-59
2022/01/01 15:56:47;;;;;;;15.20;9.40;;;;;;;11.38;76.19;99600.16;211332;1316;139126;-58
2022/01/01 16:01:54;;;;;;;14.60;9.50;;;;;;;11.32;76.51;99604.92;211531;1316;139116;-58
2022/01/01 16:07:39;;;;;;;16.00;9.90;;;;;;;11.31;76.46;99603.41;215318;1305;636868;-61
2022/01/01 16:12:51;;;;;;;16.80;10.70;;;;;;;11.24;76.63;99605.35;217879;1292;138319;-60
2022/01/01 16:17:55;;;;;;;15.50;9.60;;;;;;;11.20;76.56;99603.10;217427;1290;144202;-59
2022/01/01 16:23:10;;;;;;;14.00;9.20;;;;;;;11.19;76.62;99610.47;218245;1290;139134;-60
2022/01/01 16:28:15;;;;;;;14.80;9.20;;;;;;;11.26;76.72;99615.38;217616;1289;138996;-62
2022/01/01 16:33:19;;;;;;;13.40;9.00;;;;;;;11.28;76.98;99616.35;218370;1290;138290;-64
2022/01/01 16:38:26;;;;;;;14.50;8.80;;;;;;;11.23;76.36;99616.23;218296;1290;138782;-59
2022/01/01 16:43:59;;;;;;;11.20;7.20;;;;;;;11.23;76.86;99621.63;218422;1289;139755;-65
2022/01/01 16:49:10;;;;;;;14.50;8.30;;;;;;;11.25;76.56;99623.61;218107;1289;139310;-62
2022/01/01 16:54:16;;;;;;;11.80;7.90;;;;;;;11.26;76.80;99629.58;218607;1289;138127;-59
2022/01/01 16:59:19;;;;;;;13.50;9.10;;;;;;;11.28;76.96;99640.14;218150;1290;138682;-59
2022/01/01 17:04:30;;;;;;;14.60;8.90;;;;;;;11.26;76.73;99638.47;218229;1290;138823;-58
2022/01/01 17:09:35;;;;;;;15.20;9.10;;;;;;;11.26;76.87;99640.08;218584;1289;139337;-60
2022/01/01 17:14:38;;;;;;;15.80;10.40;;;;;;;11.30;76.96;99644.63;218586;1289;139410;-62
2022/01/01 17:19:50;;;;;;;16.50;10.70;;;;;;;11.34;76.95;99648.69;218399;1289;140217;-59
2022/01/01 17:25:07;;;;;;;18.70;11.80;;;;;;;11.36;76.78;99647.85;218610;1289;138909;-62
2022/01/01 17:30:11;;;;;;;19.50;12.20;;;;;;;11.36;76.95;99650.73;218248;1289;139042;-63
2022/01/01 17:35:36;;;;;;;20.50;13.20;;;;;;;11.36;76.74;99651.05;218565;1290;139143;-62
2022/01/01 17:40:43;;;;;;;21.30;13.00;;;;;;;11.41;76.61;99651.89;217943;1290;140154;-63
2022/01/01 17:45:48;;;;;;;29.10;20.60;;;;;;;11.41;76.81;99660.92;218624;1289;138550;-63
2022/01/01 17:51:01;;;;;;;19.00;13.10;;;;;;;11.38;76.77;99662.48;218223;1288;139387;-61
2022/01/01 17:56:07;;;;;;;18.30;12.50;;;;;;;11.39;76.86;99668.10;218103;1290;139324;-64
2022/01/01 18:01:12;;;;;;;;;;;;;;;11.44;76.63;99667.16;218543;1289;138775;-63
2022/01/01 18:06:19;;;;;;;19.20;13.70;;;;;;;11.40;76.47;99666.83;218248;1290;125363;-59
2022/01/01 18:11:29;;;;;;;20.90;14.20;;;;;;;11.38;76.60;99672.23;217939;1290;138607;-60
2022/01/01 18:16:33;;;;;;;21.60;13.70;;;;;;;11.39;76.59;99674.52;218013;1290;138355;-61
2022/01/01 18:21:37;;;;;;;19.40;12.50;;;;;;;11.37;76.39;99678.53;218489;1288;141605;-60
2022/01/01 18:27:01;;;;;;;19.70;13.50;;;;;;;11.34;76.02;99682.98;218299;1290;138871;-65
2022/01/01 18:32:08;;;;;;;19.00;13.50;;;;;;;11.36;76.22;99693.72;218174;1290;139505;-63
2022/01/01 18:37:22;;;;;;;20.50;13.10;;;;;;;11.34;76.26;99695.62;218135;1290;139610;-61
2022/01/01 18:42:27;;;;;;;22.40;13.40;;;;;;;11.29;76.66;99706.85;218535;1290;139955;-60
2022/01/01 18:47:30;;;;;;;19.50;13.20;;;;;;;11.26;76.27;99709.52;218420;1289;139709;-61
2022/01/01 18:52:45;;;;;;;19.20;13.90;;;;;;;11.28;76.35;99711.21;218238;1290;139773;-61
2022/01/01 18:57:58;;;;;;;21.20;13.80;;;;;;;11.24;76.04;99712.81;218420;1290;139886;-62
2022/01/01 19:03:05;;;;;;;23.60;15.30;;;;;;;11.22;76.21;99717.54;218527;1288;138700;-60
2022/01/01 19:08:12;;;;;;;21.40;14.10;;;;;;;11.21;76.49;99714.42;218588;1289;139296;-62
2022/01/01 19:13:21;;;;;;;22.20;13.30;;;;;;;11.22;76.86;99717.75;218234;1290;139778;-62
2022/01/01 19:18:24;;;;;;;24.00;14.90;;;;;;;11.25;76.58;99727.15;218019;1289;139133;-64
2022/01/01 19:23:29;;;;;;;22.10;14.60;;;;;;;11.26;76.34;99737.39;218515;1289;139277;-63
2022/01/01 19:28:35;;;;;;;21.30;15.00;;;;;;;11.25;76.24;99738.52;218137;1288;139155;-58
2022/01/01 19:33:39;;;;;;;26.80;15.00;;;;;;;11.25;76.71;99742.10;218170;1290;139258;-65
2022/01/01 19:38:42;;;;;;;22.80;14.30;;;;;;;11.22;76.36;99748.83;218314;1290;140282;-60
2022/01/01 19:43:52;;;;;;;25.40;15.20;;;;;;;11.23;76.18;99741.33;218448;1289;139046;-65
2022/01/01 19:49:00;;;;;;;25.30;15.60;;;;;;;11.21;76.59;99745.47;218543;1289;139221;-59
2022/01/01 19:54:03;;;;;;;22.90;14.60;;;;;;;11.23;76.53;99745.38;218225;1289;139337;-62
2022/01/01 19:59:06;;;;;;;21.10;12.80;;;;;;;11.19;76.41;99753.59;218148;1290;138877;-59
2022/01/01 20:04:09;;;;;;;17.40;12.10;;;;;;;11.21;76.08;99753.84;218316;1289;139994;-64
2022/01/01 20:09:14;;;;;;;21.40;11.90;;;;;;;11.27;76.34;99755.81;217201;1289;139769;-60
2022/01/01 20:14:18;;;;;;;19.10;12.90;;;;;;;11.28;76.14;99763.58;218225;1290;139391;-63
2022/01/01 20:19:21;;;;;;;21.90;14.30;;;;;;;11.25;76.42;99762.17;218380;1289;139042;-60
2022/01/01 20:24:24;;;;;;;20.10;14.80;;;;;;;11.22;76.45;99774.75;218456;1289;138886;-63
2022/01/01 20:29:27;;;;;;;21.80;15.40;;;;;;;11.20;76.64;99783.55;218339;1290;140877;-64
2022/01/01 20:34:32;;;;;;;23.50;15.50;;;;;;;11.24;76.47;99787.45;218325;1290;139554;-61
2022/01/01 20:39:35;;;;;;;25.90;16.10;;;;;;;11.21;76.38;99788.64;218298;1290;138918;-60
2022/01/01 20:44:40;;;;;;;24.50;16.50;;;;;;;11.18;76.29;99788.27;218349;1290;138778;-62
2022/01/01 20:49:43;;;;;;;25.20;16.40;;;;;;;11.17;76.37;99792.59;218295;1288;139318;-59
2022/01/01 20:54:46;;;;;;;25.90;16.40;;;;;;;11.16;76.69;99796.39;218320;1288;139687;-66
2022/01/01 20:59:49;;;;;;;25.80;16.50;;;;;;;11.15;76.66;99796.23;218310;1290;139721;-60
2022/01/01 21:05:06;;;;;;;24.60;18.10;;;;;;;11.17;76.80;99798.11;218410;1289;138868;-59
2022/01/01 21:10:10;;;;;;;27.30;18.80;;;;;;;11.20;76.91;99791.38;218567;1289;138756;-59
2022/01/01 21:15:13;;;;;;;27.00;16.90;;;;;;;11.21;76.74;99793.45;218166;1290;139884;-63
2022/01/01 21:20:16;;;;;;;25.40;17.50;;;;;;;11.22;76.48;99789.66;217714;1290;139183;-62
2022/01/01 21:25:19;;;;;;;25.30;18.20;;;;;;;11.21;76.16;99794.16;218309;1290;139164;-58
2022/01/01 21:30:23;;;;;;;28.00;18.80;;;;;;;11.21;76.55;99791.16;218378;1290;139504;-62
2022/01/01 21:35:27;;;;;;;26.20;18.80;;;;;;;11.20;76.54;99792.63;218034;1289;138915;-59
2022/01/01 21:40:30;;;;;;;26.10;18.50;;;;;;;11.19;76.84;99792.66;218016;1290;139042;-62
2022/01/01 21:45:33;;;;;;;26.30;18.10;;;;;;;11.21;76.44;99792.77;218157;1290;139418;-59
2022/01/01 21:50:38;;;;;;;28.00;19.30;;;;;;;11.21;76.56;99794.89;218289;1290;139328;-60
2022/01/01 21:55:42;;;;;;;27.30;18.90;;;;;;;11.21;76.56;99798.61;218212;1290;138838;-61
2022/01/01 22:00:46;;;;;;;28.20;19.70;;;;;;;11.16;76.40;99802.58;218074;1290;138830;-62
2022/01/01 22:05:49;;;;;;;26.60;19.40;;;;;;;11.12;76.34;99805.48;218284;1289;139436;-64
2022/01/01 22:10:52;;;;;;;25.20;17.10;;;;;;;11.10;76.27;99807.16;218479;1289;139597;-63
2022/01/01 22:15:55;;;;;;;24.40;16.10;;;;;;;11.11;76.35;99812.27;217882;1291;138857;-65
2022/01/01 22:20:58;;;;;;;24.10;16.40;;;;;;;11.11;76.57;99814.42;217925;1289;139048;-59
2022/01/01 22:26:01;;;;;;;23.40;15.70;;;;;;;11.10;76.57;99815.70;218203;1290;138643;-62
2022/01/01 22:31:05;;;;;;;22.80;14.90;;;;;;;11.08;76.69;99815.78;218435;1290;139426;-61
2022/01/01 22:36:08;;;;;;;24.30;14.60;;;;;;;11.11;76.47;99819.73;218126;1290;140040;-63
2022/01/01 22:41:12;;;;;;;21.80;14.60;;;;;;;11.13;76.14;99811.98;218363;1289;141700;-61
2022/01/01 22:46:15;;;;;;;22.70;14.60;;;;;;;11.19;76.41;99817.22;218306;1290;138400;-60
2022/01/01 22:51:18;;;;;;;22.20;15.00;;;;;;;11.19;75.94;99814.91;218393;1289;138817;-61
2022/01/01 22:56:21;;;;;;;21.20;15.60;;;;;;;11.19;75.93;99814.52;218398;1289;138817;-60
2022/01/01 23:01:26;;;;;;;24.10;14.60;;;;;;;11.18;76.01;99817.08;218181;1290;139013;-61
2022/01/01 23:06:31;;;;;;;22.20;15.10;;;;;;;11.17;75.80;99817.96;218543;1289;140264;-61
2022/01/01 23:11:34;;;;;;;24.10;16.40;;;;;;;11.16;76.11;99808.67;218518;1290;139184;-60